Other Surface Observations
Issued by NWS Great Falls, MT

Home | Current Version | Previous Version | Text Only | Print | Product List | Glossary On
Versions: 1 2 3 4 5 6 7 8 9 10 11 12 13 14 15 16 17 18 19 20 21 22 23 24 25 26 27 28 29 30 31 32 33 34 35 36 37 38 39 40 41 42 43 44 45 46 47 48 49 50
266
SXUS55 KTFX 200908
OSOTFX

AREA AWOS OBSERVATIONS
NATIONAL WEATHER SERVICE GREAT FALLS MT
0306 AM MDT Fri Apr 20 2018

METAR K7S1 200855Z AUTO 35002KT 40SM 04/M04 A3005 RMK A01 T00381044
METAR K7S1 200755Z AUTO 02005KT 40SM 06/M04 A3005 RMK A01 T00611044
METAR K97M 200755Z AUTO 11015KT 40SM 04/M02 A3008 RMK A01 T00381022
METAR K9S2 200755Z AUTO 10006KT 7SM 03/M03 A3017 RMK A01 T00271027
METAR K9S5 200855Z AUTO 03000KT 40SM 01/M03 A3006 RMK A01 T00111027
METAR KRPX 200755Z AUTO 04006KT 40SM 07/M01 A2999 RMK A01 T00661005
METAR KS34 200755Z AUTO 31000KT 25SM 00/M06 A3015 RMK A01 T00001055
METAR KTHM 200755Z AUTO 27000KT 40SM 00/M04 A3020 RMK A01 T00001038



USA.gov is the U.S. government's official web portal to all federal, state and local government web resources and services.